Graford, Texas
Current Conditions -  °F | °C
As of 3:53 AM on Tuesday 21 Oct 2014 (Local Time) from KMWL Reporting Station
Haze Haze  
Wind Chill: 61°   Ceiling: Unl
Heat Index: 61°   Visibility: 5mi
Dew Point: 57°   Wind: 3mph
Humidity: 87%   Direction: 20°NNE
Pressure: 30.04"   Gusts: NA
Location:  32.94°N, 98.25°W
Report Text: KMWL 210853Z AUTO 02003KT 5SM BR CLR 16/14 A3004 RMK AO2 SLP161 T01610139 56001
Loading
Personal Weather Stations






























Interactive Weather Map
Tropical Storm Tracking
New forecast layout! Learn more

10-Day Weather Forecast

Advertisements
Track Severe Weather on mobile